City Of Jonesville — WDC2654 — position and weather

sailwx.info

Track history (hours):
 
Tides and Currents Weather Stations Pressure Air Temp Water Temp Dewpoint Dewpoint Depression Visibility Wind Speed Wind Dir Waves Ship Positions

City Of Jonesville

Owner: Kirby Inland Marine LP, Houston, TX. More information available from US FCC via Universal Licensing System and Coast Guard Vessel Documentation Center.

Last reported at 2017-Dec-17 01:01 UTC. Time now 2017-Dec-17 15:40 UTC.
Position N 29°34' W 090°31'.

Length 202 m; draft 2.9 m.

Type: . MMSI: 366996050.

Date/timePositionNaut miles runAvg speedWind from/ knotsBaromVisibWave heightAir tempDewpointWater temp
2017-Dec-17 01:01N 29°34' W 090°31'0 3.8
2017-Dec-17 01:00N 29°34' W 090°31'2 3.8
2017-Dec-17 00:30N 29°34' W 090°33'1 2.8
2017-Dec-17 00:00N 29°34' W 090°35'2 3.3
2017-Dec-16 23:30N 29°35' W 090°36'2 3.4
2017-Dec-16 23:00N 29°35' W 090°38'2 3.4
2017-Dec-16 22:30N 29°36' W 090°40'2 3.3
2017-Dec-16 22:00N 29°37' W 090°42'1 2.3
2017-Dec-16 21:30N 29°36' W 090°43'2 3.2
2017-Dec-16 21:00N 29°34' W 090°43'2 3.1
2017-Dec-16 20:30N 29°34' W 090°45'1 1.3
2017-Dec-16 20:00N 29°33' W 090°45'0 0.0
2017-Dec-16 19:30N 29°33' W 090°45'0 0.2
2017-Dec-16 19:00N 29°33' W 090°45'1 1.6
2017-Dec-16 18:30N 29°32' W 090°46'2 4.1
2017-Dec-16 18:00N 29°32' W 090°48'2 4.5
2017-Dec-16 17:30N 29°32' W 090°51'3 4.2
2017-Dec-16 16:54N 29°33' W 090°53'2 4.2
2017-Dec-16 16:30N 29°33' W 090°55'57 2.8
2017-Dec-15 20:05N 29°50' W 091°58'0 4.0
2017-Dec-15 20:00N 29°50' W 091°58'2 4.1
2017-Dec-15 19:30N 29°50' W 092°00'2 4.3
2017-Dec-15 19:00N 29°49' W 092°03'2 4.2
2017-Dec-15 18:30N 29°48' W 092°05'2 4.1
2017-Dec-15 18:00N 29°47' W 092°07'2 3.0
2017-Dec-15 17:30N 29°47' W 092°09'0 1.0
2017-Dec-15 17:00N 29°47' W 092°09'2 3.0
2017-Dec-15 16:30N 29°47' W 092°11'2 3.9
2017-Dec-15 16:00N 29°47' W 092°13'2 3.7
2017-Dec-15 15:30N 29°48' W 092°15'1 1.6
2017-Dec-15 15:00N 29°49' W 092°16'0 0.2
2017-Dec-15 14:30N 29°49' W 092°16'0 0.0
2017-Dec-15 14:00N 29°49' W 092°16'0 0.1
2017-Dec-15 13:30N 29°49' W 092°16'0 0.4
2017-Dec-15 13:00N 29°49' W 092°16'0 0.4
2017-Dec-15 12:30N 29°49' W 092°17'0 0.2
2017-Dec-15 12:00N 29°49' W 092°17'0 0.3
2017-Dec-15 11:30N 29°49' W 092°17'1 2.7
2017-Dec-15 11:00N 29°50' W 092°18'2 3.1
2017-Dec-15 10:30N 29°50' W 092°19'2 3.2
2017-Dec-15 09:55N 29°51' W 092°22'1 3.1
2017-Dec-15 09:28N 29°52' W 092°22'0 0.4
2017-Dec-15 09:00N 29°52' W 092°23'44 3.0
2017-Dec-14 18:28N 29°59' W 093°13'1 3.2
2017-Dec-14 18:00N 30°00' W 093°14'1 1.9
2017-Dec-14 17:30N 30°01' W 093°14'2 3.1
2017-Dec-14 17:00N 30°02' W 093°15'2 3.0
2017-Dec-14 16:30N 30°04' W 093°16'2 3.5
2017-Dec-14 16:00N 30°05' W 093°17'2 1.5
2017-Dec-14 14:59N 30°06' W 093°18'0 0.0
2017-Dec-14 14:25N 30°06' W 093°18'0 0.2
2017-Dec-14 14:00N 30°06' W 093°18'0 0.2
2017-Dec-14 13:29N 30°06' W 093°18'0 0.1
2017-Dec-14 13:00N 30°06' W 093°18'0 0.9
2017-Dec-14 12:30N 30°06' W 093°19'0 0.3
2017-Dec-14 12:00N 30°06' W 093°19'0 0.5
2017-Dec-14 11:30N 30°06' W 093°19'0 0.1
2017-Dec-14 11:00N 30°06' W 093°19'0 0.0
2017-Dec-14 10:30N 30°06' W 093°19'0 0.0
2017-Dec-14 09:58N 30°06' W 093°19'0 0.0
2017-Dec-14 09:30N 30°06' W 093°19'0 0.0
2017-Dec-14 09:00N 30°06' W 093°19'0 0.0
2017-Dec-14 08:30N 30°06' W 093°19'0 0.0
2017-Dec-14 08:00N 30°06' W 093°19'0 0.0
2017-Dec-14 07:30N 30°06' W 093°19'0 0.0
2017-Dec-14 06:59N 30°06' W 093°19'0 0.0
2017-Dec-14 06:30N 30°06' W 093°19'0 0.0
2017-Dec-14 06:00N 30°06' W 093°19'0 0.0
2017-Dec-14 05:30N 30°06' W 093°19'0 0.1
2017-Dec-14 05:00N 30°06' W 093°19'0 0.1
2017-Dec-14 04:30N 30°06' W 093°19'1 2.4
2017-Dec-14 04:00N 30°05' W 093°20'1 2.5
2017-Dec-14 03:30N 30°04' W 093°21'1 1.6
2017-Dec-14 03:00N 30°04' W 093°22'0 0.0
2017-Dec-14 02:30N 30°04' W 093°22'0 0.1
2017-Dec-14 02:00N 30°04' W 093°22'0 0.0
2017-Dec-14 01:30N 30°04' W 093°22'0 0.1
2017-Dec-14 01:01N 30°04' W 093°22'0 0.8
2017-Dec-14 00:30N 30°04' W 093°21'0 0.0
2017-Dec-14 00:00N 30°04' W 093°21'0 0.0
2017-Dec-13 23:30N 30°04' W 093°21'0 0.0
2017-Dec-13 23:00N 30°04' W 093°21'0 0.0
2017-Dec-13 22:30N 30°04' W 093°21'0 0.0
2017-Dec-13 22:00N 30°04' W 093°21'0 0.0
2017-Dec-13 21:30N 30°04' W 093°21'0 0.0
2017-Dec-13 21:00N 30°04' W 093°21'0 0.0
2017-Dec-13 20:30N 30°04' W 093°21'0 0.0
2017-Dec-13 20:00N 30°04' W 093°21'0 0.0
2017-Dec-13 19:30N 30°04' W 093°21'0 0.0
2017-Dec-13 19:00N 30°04' W 093°21'0 0.0
2017-Dec-13 18:30N 30°04' W 093°21'0 0.0
2017-Dec-13 18:00N 30°04' W 093°21'0 0.0
2017-Dec-13 17:30N 30°04' W 093°21'0 0.0
2017-Dec-13 17:00N 30°04' W 093°21'0 0.0
2017-Dec-13 16:30N 30°04' W 093°21'0 0.0
2017-Dec-13 16:00N 30°04' W 093°21'0 0.0
2017-Dec-13 15:30N 30°04' W 093°21'0 0.0
2017-Dec-13 15:00N 30°04' W 093°21'0 0.0
2017-Dec-13 14:30N 30°04' W 093°21'0 0.0
2017-Dec-13 14:00N 30°04' W 093°21'0 0.7
2017-Dec-13 13:30N 30°04' W 093°22'0 0.7
2017-Dec-13 13:00N 30°04' W 093°21'0 0.0
2017-Dec-13 12:30N 30°04' W 093°21'0 0.0
2017-Dec-13 12:00N 30°04' W 093°21'0 0.0
2017-Dec-13 11:30N 30°04' W 093°21'0 0.0
2017-Dec-13 11:00N 30°04' W 093°21'0 0.0
2017-Dec-13 10:30N 30°04' W 093°21'0 0.0
2017-Dec-13 10:00N 30°04' W 093°21'0 0.0
2017-Dec-13 09:30N 30°04' W 093°21'0 0.0
2017-Dec-13 09:00N 30°04' W 093°21'0 0.0
2017-Dec-13 08:30N 30°04' W 093°21'0 0.0
2017-Dec-13 08:00N 30°04' W 093°21'0 0.0
2017-Dec-13 07:30N 30°04' W 093°21'0 0.0
2017-Dec-13 07:00N 30°04' W 093°21'0 0.0
2017-Dec-13 06:30N 30°04' W 093°21'0 0.0
2017-Dec-13 06:00N 30°04' W 093°21'0 0.0
2017-Dec-13 05:30N 30°04' W 093°21'0 0.0
2017-Dec-13 05:00N 30°04' W 093°21'0 0.0
2017-Dec-13 04:30N 30°04' W 093°21'0 0.0
2017-Dec-13 04:00N 30°04' W 093°21'0 0.0
2017-Dec-13 03:30N 30°04' W 093°21'0 0.0
2017-Dec-13 03:00N 30°04' W 093°21'0 0.0
2017-Dec-13 02:30N 30°04' W 093°21'0 0.0
2017-Dec-13 02:00N 30°04' W 093°21'0 0.0
2017-Dec-13 01:30N 30°04' W 093°21'0 0.0
2017-Dec-13 01:00N 30°04' W 093°21'0 0.0
2017-Dec-13 00:30N 30°04' W 093°21'0 0.0
2017-Dec-13 00:00N 30°04' W 093°21'0 0.0
2017-Dec-12 23:30N 30°04' W 093°21'0 0.2
2017-Dec-12 23:01N 30°04' W 093°21'0 0.4
2017-Dec-12 22:30N 30°04' W 093°22'0 0.0
2017-Dec-12 22:00N 30°04' W 093°22'0 0.1
2017-Dec-12 21:31N 30°04' W 093°22'0 0.6
2017-Dec-12 21:00N 30°04' W 093°21'1 2.1
2017-Dec-12 20:30N 30°04' W 093°21'1 2.1
2017-Dec-12 20:00N 30°05' W 093°20'1 2.4
2017-Dec-12 19:30N 30°06' W 093°20'1 3.0
2017-Dec-12 19:00N 30°08' W 093°20'1 1.2
2017-Dec-12 18:30N 30°08' W 093°19'0 0.0
2017-Dec-12 18:00N 30°08' W 093°19'0 0.0
2017-Dec-12 17:30N 30°08' W 093°19'0 0.0
2017-Dec-12 17:00N 30°08' W 093°19'0 0.1
2017-Dec-12 16:30N 30°08' W 093°19'0 0.0
2017-Dec-12 16:00N 30°08' W 093°19'0 0.0
2017-Dec-12 15:30N 30°08' W 093°19'0 0.0
2017-Dec-12 15:00N 30°08' W 093°19'0 0.0
2017-Dec-12 14:30N 30°08' W 093°19'0 0.0
2017-Dec-12 14:00N 30°08' W 093°19'0 0.0
2017-Dec-12 13:30N 30°08' W 093°19'0 0.0
2017-Dec-12 13:00N 30°08' W 093°19'0 0.0
2017-Dec-12 12:30N 30°08' W 093°19'0 0.0
2017-Dec-12 12:00N 30°08' W 093°19'0 0.0
2017-Dec-12 11:07N 30°08' W 093°19'0 0.0
2017-Dec-12 11:00N 30°08' W 093°19'0 0.0
2017-Dec-12 10:30N 30°08' W 093°19'0 0.0
2017-Dec-12 10:00N 30°08' W 093°19'0 0.0
2017-Dec-12 08:46N 30°08' W 093°19'0 0.0
2017-Dec-11 20:33N 30°08' W 093°19'0 0.0
2017-Dec-11 20:30N 30°08' W 093°19'0 0.0
2017-Dec-11 19:40N 30°08' W 093°19'0 0.0
2017-Dec-11 19:30N 30°08' W 093°19'0 0.0
2017-Dec-11 19:00N 30°08' W 093°19'0 0.0
2017-Dec-11 18:30N 30°08' W 093°19'0 0.0
2017-Dec-11 18:00N 30°08' W 093°19'0 0.0
2017-Dec-11 17:30N 30°08' W 093°19'0 0.0
2017-Dec-11 17:00N 30°08' W 093°19'0 0.0
2017-Dec-11 16:30N 30°08' W 093°19'0 0.0
2017-Dec-11 16:00N 30°08' W 093°19'0 0.0
2017-Dec-11 15:30N 30°08' W 093°19'0 0.0
2017-Dec-11 14:29N 30°08' W 093°19'1 2.7
2017-Dec-11 14:00N 30°07' W 093°20'2 4.4
2017-Dec-11 13:30N 30°05' W 093°20'2 4.2
2017-Dec-11 13:00N 30°04' W 093°22'0 0.2
2017-Dec-11 12:30N 30°04' W 093°22'0 0.1
2017-Dec-11 12:00N 30°04' W 093°22'0 0.2
2017-Dec-11 11:30N 30°04' W 093°22'1 1.3
2017-Dec-11 11:00N 30°04' W 093°21'0 0.0
2017-Dec-11 10:30N 30°04' W 093°21'0 0.0
2017-Dec-11 10:00N 30°04' W 093°21'0 0.0
2017-Dec-11 09:30N 30°04' W 093°21'0 0.0
2017-Dec-11 09:00N 30°04' W 093°21'0 0.0
2017-Dec-11 08:30N 30°04' W 093°21'0 0.0
2017-Dec-11 08:00N 30°04' W 093°21'0 0.0
2017-Dec-11 07:30N 30°04' W 093°21'0 0.0
2017-Dec-11 07:00N 30°04' W 093°21'0 0.0
2017-Dec-11 06:30N 30°04' W 093°21'0 0.0
2017-Dec-11 06:00N 30°04' W 093°21'0 0.0
2017-Dec-11 05:30N 30°04' W 093°21'0 0.0
2017-Dec-11 05:00N 30°04' W 093°21'0 0.0
2017-Dec-11 04:30N 30°04' W 093°21'0 0.0
2017-Dec-11 04:00N 30°04' W 093°21'0 0.0
2017-Dec-11 03:30N 30°04' W 093°21'0 0.0
2017-Dec-11 03:00N 30°04' W 093°21'0 0.0
2017-Dec-11 02:30N 30°04' W 093°21'0 0.0
2017-Dec-11 02:00N 30°04' W 093°21'0 0.0
2017-Dec-11 01:30N 30°04' W 093°21'0 0.0
2017-Dec-11 01:00N 30°04' W 093°21'0 0.0
2017-Dec-11 00:30N 30°04' W 093°21'0 0.0
2017-Dec-11 00:00N 30°04' W 093°21'0 0.0
2017-Dec-10 23:30N 30°04' W 093°21'0 0.0
2017-Dec-10 23:00N 30°04' W 093°21'0 0.0
2017-Dec-10 22:30N 30°04' W 093°21'0 0.0
2017-Dec-10 22:00N 30°04' W 093°21'0 0.0
2017-Dec-10 21:30N 30°04' W 093°21'0 0.0
2017-Dec-10 21:00N 30°04' W 093°21'0 0.0
2017-Dec-10 20:30N 30°04' W 093°21'0 0.0
2017-Dec-10 20:00N 30°04' W 093°21'0 0.0
2017-Dec-10 19:30N 30°04' W 093°21'0 0.0
2017-Dec-10 19:00N 30°04' W 093°21'0 0.0
2017-Dec-10 18:30N 30°04' W 093°21'0 0.0
2017-Dec-10 18:00N 30°04' W 093°21'0 0.0
2017-Dec-10 17:30N 30°04' W 093°21'0 0.0
2017-Dec-10 17:00N 30°04' W 093°21'0 0.0
2017-Dec-10 16:30N 30°04' W 093°21'0 0.0
2017-Dec-10 16:00N 30°04' W 093°21'0 0.0
2017-Dec-10 15:30N 30°04' W 093°21'0 0.0
2017-Dec-10 15:00N 30°04' W 093°21'0 0.0
2017-Dec-10 14:30N 30°04' W 093°21'0 0.0
2017-Dec-10 14:00N 30°04' W 093°21'0 0.0
2017-Dec-10 13:30N 30°04' W 093°21'0 0.0
2017-Dec-10 13:00N 30°04' W 093°21'0 0.0
2017-Dec-10 12:30N 30°04' W 093°21'0 0.0
2017-Dec-10 12:00N 30°04' W 093°21'0 0.0
2017-Dec-10 11:30N 30°04' W 093°21'0 0.0
2017-Dec-10 11:00N 30°04' W 093°21'0 0.0
2017-Dec-10 10:30N 30°04' W 093°21'0 0.0
2017-Dec-10 10:00N 30°04' W 093°21'0 0.0
2017-Dec-10 09:30N 30°04' W 093°21'0 0.0
2017-Dec-10 09:00N 30°04' W 093°21'0 0.0
2017-Dec-10 08:30N 30°04' W 093°21'0 0.0
2017-Dec-10 08:00N 30°04' W 093°21'0 0.0
2017-Dec-10 07:30N 30°04' W 093°21'0 0.0
2017-Dec-10 07:00N 30°04' W 093°21'0 0.0
2017-Dec-10 06:30N 30°04' W 093°21'0 0.0
2017-Dec-10 06:00N 30°04' W 093°21'0 0.0
2017-Dec-10 05:30N 30°04' W 093°21'0 0.0
2017-Dec-10 05:00N 30°04' W 093°21'0 0.0
2017-Dec-10 04:30N 30°04' W 093°21'0 0.0
2017-Dec-10 04:00N 30°04' W 093°21'1 1.3
2017-Dec-10 03:30N 30°04' W 093°22'0 0.0
2017-Dec-10 03:01N 30°04' W 093°22'1 1.1
2017-Dec-10 02:30N 30°04' W 093°23'2 4.5
2017-Dec-10 02:00N 30°04' W 093°25'2 4.7
2017-Dec-10 01:30N 30°04' W 093°28'2 4.7
2017-Dec-10 01:00N 30°04' W 093°31'2 4.2
2017-Dec-10 00:30N 30°04' W 093°33'2 4.5
2017-Dec-09 23:58N 30°04' W 093°36'2 4.4
2017-Dec-09 23:30N 30°04' W 093°38'72 3.3
2017-Dec-09 01:33N 29°30' W 094°53'1 5.3
2017-Dec-09 01:18N 29°31' W 094°53'2 5.4
2017-Dec-09 01:00N 29°33' W 094°54'3 5.5
2017-Dec-09 00:30N 29°35' W 094°56'3 5.7
2017-Dec-09 00:00N 29°38' W 094°58'3 6.1
2017-Dec-08 23:30N 29°41' W 094°59'3 6.0
2017-Dec-08 23:00N 29°43' W 095°01'3 0.4
2017-Dec-08 13:52N 29°45' W 095°04'3 4.3
2017-Dec-08 13:15N 29°44' W 095°01'0 0.5
2017-Dec-08 12:58N 29°44' W 095°01'0 0.1
2017-Dec-08 12:29N 29°44' W 095°01'0 0.0
2017-Dec-08 12:00N 29°44' W 095°01'0 0.0
2017-Dec-08 11:29N 29°44' W 095°01'0 0.6
2017-Dec-08 10:59N 29°44' W 095°01'1 2.8
2017-Dec-08 10:30N 29°42' W 095°01'2 3.4
2017-Dec-08 10:00N 29°43' W 095°03'0 0.3
2017-Dec-08 09:23N 29°43' W 095°03'0 0.0
2017-Dec-08 05:34N 29°43' W 095°03'0 0.0
2017-Dec-07 23:43N 29°43' W 095°03'0 0.0
2017-Dec-07 20:55N 29°43' W 095°03'0 0.0
2017-Dec-07 20:08N 29°43' W 095°03'0 0.0
2017-Dec-07 14:31N 29°43' W 095°03'0 0.2
2017-Dec-07 14:30N 29°43' W 095°03'2 3.3
2017-Dec-07 13:58N 29°42' W 095°01'3 5.3
2017-Dec-07 13:28N 29°44' W 095°03'  
Track history (hours):
 
Tides and Currents Weather Stations Pressure Air Temp Water Temp Dewpoint Dewpoint Depression Visibility Wind Speed Wind Dir Waves Ship Positions

City Of Jonesville

Owner: Kirby Inland Marine LP, Houston, TX. More information available from US FCC via Universal Licensing System and Coast Guard Vessel Documentation Center.

Last reported at 2017-Dec-17 01:01 UTC. Time now 2017-Dec-17 15:40 UTC.
Position N 29°34' W 090°31'.

Length 202 m; draft 2.9 m.

Type: . MMSI: 366996050.

Date/timePositionNaut miles runAvg speedWind from/ knotsBaromVisibWave heightAir tempDewpointWater temp
2017-Dec-17 01:01N 29°34' W 090°31'0 3.8
2017-Dec-17 01:00N 29°34' W 090°31'2 3.8
2017-Dec-17 00:30N 29°34' W 090°33'1 2.8
2017-Dec-17 00:00N 29°34' W 090°35'2 3.3
2017-Dec-16 23:30N 29°35' W 090°36'2 3.4
2017-Dec-16 23:00N 29°35' W 090°38'2 3.4
2017-Dec-16 22:30N 29°36' W 090°40'2 3.3
2017-Dec-16 22:00N 29°37' W 090°42'1 2.3
2017-Dec-16 21:30N 29°36' W 090°43'2 3.2
2017-Dec-16 21:00N 29°34' W 090°43'2 3.1
2017-Dec-16 20:30N 29°34' W 090°45'1 1.3
2017-Dec-16 20:00N 29°33' W 090°45'0 0.0
2017-Dec-16 19:30N 29°33' W 090°45'0 0.2
2017-Dec-16 19:00N 29°33' W 090°45'1 1.6
2017-Dec-16 18:30N 29°32' W 090°46'2 4.1
2017-Dec-16 18:00N 29°32' W 090°48'2 4.5
2017-Dec-16 17:30N 29°32' W 090°51'3 4.2
2017-Dec-16 16:54N 29°33' W 090°53'2 4.2
2017-Dec-16 16:30N 29°33' W 090°55'57 2.8
2017-Dec-15 20:05N 29°50' W 091°58'0 4.0
2017-Dec-15 20:00N 29°50' W 091°58'2 4.1
2017-Dec-15 19:30N 29°50' W 092°00'2 4.3
2017-Dec-15 19:00N 29°49' W 092°03'2 4.2
2017-Dec-15 18:30N 29°48' W 092°05'2 4.1
2017-Dec-15 18:00N 29°47' W 092°07'2 3.0
2017-Dec-15 17:30N 29°47' W 092°09'0 1.0
2017-Dec-15 17:00N 29°47' W 092°09'2 3.0
2017-Dec-15 16:30N 29°47' W 092°11'2 3.9
2017-Dec-15 16:00N 29°47' W 092°13'2 3.7
2017-Dec-15 15:30N 29°48' W 092°15'1 1.6
2017-Dec-15 15:00N 29°49' W 092°16'0 0.2
2017-Dec-15 14:30N 29°49' W 092°16'0 0.0
2017-Dec-15 14:00N 29°49' W 092°16'0 0.1
2017-Dec-15 13:30N 29°49' W 092°16'0 0.4
2017-Dec-15 13:00N 29°49' W 092°16'0 0.4
2017-Dec-15 12:30N 29°49' W 092°17'0 0.2
2017-Dec-15 12:00N 29°49' W 092°17'0 0.3
2017-Dec-15 11:30N 29°49' W 092°17'1 2.7
2017-Dec-15 11:00N 29°50' W 092°18'2 3.1
2017-Dec-15 10:30N 29°50' W 092°19'2 3.2
2017-Dec-15 09:55N 29°51' W 092°22'1 3.1
2017-Dec-15 09:28N 29°52' W 092°22'0 0.4
2017-Dec-15 09:00N 29°52' W 092°23'44 3.0
2017-Dec-14 18:28N 29°59' W 093°13'1 3.2
2017-Dec-14 18:00N 30°00' W 093°14'1 1.9
2017-Dec-14 17:30N 30°01' W 093°14'2 3.1
2017-Dec-14 17:00N 30°02' W 093°15'2 3.0
2017-Dec-14 16:30N 30°04' W 093°16'2 3.5
2017-Dec-14 16:00N 30°05' W 093°17'2 1.5
2017-Dec-14 14:59N 30°06' W 093°18'0 0.0
2017-Dec-14 14:25N 30°06' W 093°18'0 0.2
2017-Dec-14 14:00N 30°06' W 093°18'0 0.2
2017-Dec-14 13:29N 30°06' W 093°18'0 0.1
2017-Dec-14 13:00N 30°06' W 093°18'0 0.9
2017-Dec-14 12:30N 30°06' W 093°19'0 0.3
2017-Dec-14 12:00N 30°06' W 093°19'0 0.5
2017-Dec-14 11:30N 30°06' W 093°19'0 0.1
2017-Dec-14 11:00N 30°06' W 093°19'0 0.0
2017-Dec-14 10:30N 30°06' W 093°19'0 0.0
2017-Dec-14 09:58N 30°06' W 093°19'0 0.0
2017-Dec-14 09:30N 30°06' W 093°19'0 0.0
2017-Dec-14 09:00N 30°06' W 093°19'0 0.0
2017-Dec-14 08:30N 30°06' W 093°19'0 0.0
2017-Dec-14 08:00N 30°06' W 093°19'0 0.0
2017-Dec-14 07:30N 30°06' W 093°19'0 0.0
2017-Dec-14 06:59N 30°06' W 093°19'0 0.0
2017-Dec-14 06:30N 30°06' W 093°19'0 0.0
2017-Dec-14 06:00N 30°06' W 093°19'0 0.0
2017-Dec-14 05:30N 30°06' W 093°19'0 0.1
2017-Dec-14 05:00N 30°06' W 093°19'0 0.1
2017-Dec-14 04:30N 30°06' W 093°19'1 2.4
2017-Dec-14 04:00N 30°05' W 093°20'1 2.5
2017-Dec-14 03:30N 30°04' W 093°21'1 1.6
2017-Dec-14 03:00N 30°04' W 093°22'0 0.0
2017-Dec-14 02:30N 30°04' W 093°22'0 0.1
2017-Dec-14 02:00N 30°04' W 093°22'0 0.0
2017-Dec-14 01:30N 30°04' W 093°22'0 0.1
2017-Dec-14 01:01N 30°04' W 093°22'0 0.8
2017-Dec-14 00:30N 30°04' W 093°21'0 0.0
2017-Dec-14 00:00N 30°04' W 093°21'0 0.0
2017-Dec-13 23:30N 30°04' W 093°21'0 0.0
2017-Dec-13 23:00N 30°04' W 093°21'0 0.0
2017-Dec-13 22:30N 30°04' W 093°21'0 0.0
2017-Dec-13 22:00N 30°04' W 093°21'0 0.0
2017-Dec-13 21:30N 30°04' W 093°21'0 0.0
2017-Dec-13 21:00N 30°04' W 093°21'0 0.0
2017-Dec-13 20:30N 30°04' W 093°21'0 0.0
2017-Dec-13 20:00N 30°04' W 093°21'0 0.0
2017-Dec-13 19:30N 30°04' W 093°21'0 0.0
2017-Dec-13 19:00N 30°04' W 093°21'0 0.0
2017-Dec-13 18:30N 30°04' W 093°21'0 0.0
2017-Dec-13 18:00N 30°04' W 093°21'0 0.0
2017-Dec-13 17:30N 30°04' W 093°21'0 0.0
2017-Dec-13 17:00N 30°04' W 093°21'0 0.0
2017-Dec-13 16:30N 30°04' W 093°21'0 0.0
2017-Dec-13 16:00N 30°04' W 093°21'0 0.0
2017-Dec-13 15:30N 30°04' W 093°21'0 0.0
2017-Dec-13 15:00N 30°04' W 093°21'0 0.0
2017-Dec-13 14:30N 30°04' W 093°21'0 0.0
2017-Dec-13 14:00N 30°04' W 093°21'0 0.7
2017-Dec-13 13:30N 30°04' W 093°22'0 0.7
2017-Dec-13 13:00N 30°04' W 093°21'0 0.0
2017-Dec-13 12:30N 30°04' W 093°21'0 0.0
2017-Dec-13 12:00N 30°04' W 093°21'0 0.0
2017-Dec-13 11:30N 30°04' W 093°21'0 0.0
2017-Dec-13 11:00N 30°04' W 093°21'0 0.0
2017-Dec-13 10:30N 30°04' W 093°21'0 0.0
2017-Dec-13 10:00N 30°04' W 093°21'0 0.0
2017-Dec-13 09:30N 30°04' W 093°21'0 0.0
2017-Dec-13 09:00N 30°04' W 093°21'0 0.0
2017-Dec-13 08:30N 30°04' W 093°21'0 0.0
2017-Dec-13 08:00N 30°04' W 093°21'0 0.0
2017-Dec-13 07:30N 30°04' W 093°21'0 0.0
2017-Dec-13 07:00N 30°04' W 093°21'0 0.0
2017-Dec-13 06:30N 30°04' W 093°21'0 0.0
2017-Dec-13 06:00N 30°04' W 093°21'0 0.0
2017-Dec-13 05:30N 30°04' W 093°21'0 0.0
2017-Dec-13 05:00N 30°04' W 093°21'0 0.0
2017-Dec-13 04:30N 30°04' W 093°21'0 0.0
2017-Dec-13 04:00N 30°04' W 093°21'0 0.0
2017-Dec-13 03:30N 30°04' W 093°21'0 0.0
2017-Dec-13 03:00N 30°04' W 093°21'0 0.0
2017-Dec-13 02:30N 30°04' W 093°21'0 0.0
2017-Dec-13 02:00N 30°04' W 093°21'0 0.0
2017-Dec-13 01:30N 30°04' W 093°21'0 0.0
2017-Dec-13 01:00N 30°04' W 093°21'0 0.0
2017-Dec-13 00:30N 30°04' W 093°21'0 0.0
2017-Dec-13 00:00N 30°04' W 093°21'0 0.0
2017-Dec-12 23:30N 30°04' W 093°21'0 0.2
2017-Dec-12 23:01N 30°04' W 093°21'0 0.4
2017-Dec-12 22:30N 30°04' W 093°22'0 0.0
2017-Dec-12 22:00N 30°04' W 093°22'0 0.1
2017-Dec-12 21:31N 30°04' W 093°22'0 0.6
2017-Dec-12 21:00N 30°04' W 093°21'1 2.1
2017-Dec-12 20:30N 30°04' W 093°21'1 2.1
2017-Dec-12 20:00N 30°05' W 093°20'1 2.4
2017-Dec-12 19:30N 30°06' W 093°20'1 3.0
2017-Dec-12 19:00N 30°08' W 093°20'1 1.2
2017-Dec-12 18:30N 30°08' W 093°19'0 0.0
2017-Dec-12 18:00N 30°08' W 093°19'0 0.0
2017-Dec-12 17:30N 30°08' W 093°19'0 0.0
2017-Dec-12 17:00N 30°08' W 093°19'0 0.1
2017-Dec-12 16:30N 30°08' W 093°19'0 0.0
2017-Dec-12 16:00N 30°08' W 093°19'0 0.0
2017-Dec-12 15:30N 30°08' W 093°19'0 0.0
2017-Dec-12 15:00N 30°08' W 093°19'0 0.0
2017-Dec-12 14:30N 30°08' W 093°19'0 0.0
2017-Dec-12 14:00N 30°08' W 093°19'0 0.0
2017-Dec-12 13:30N 30°08' W 093°19'0 0.0
2017-Dec-12 13:00N 30°08' W 093°19'0 0.0
2017-Dec-12 12:30N 30°08' W 093°19'0 0.0
2017-Dec-12 12:00N 30°08' W 093°19'0 0.0
2017-Dec-12 11:07N 30°08' W 093°19'0 0.0
2017-Dec-12 11:00N 30°08' W 093°19'0 0.0
2017-Dec-12 10:30N 30°08' W 093°19'0 0.0
2017-Dec-12 10:00N 30°08' W 093°19'0 0.0
2017-Dec-12 08:46N 30°08' W 093°19'0 0.0
2017-Dec-11 20:33N 30°08' W 093°19'0 0.0
2017-Dec-11 20:30N 30°08' W 093°19'0 0.0
2017-Dec-11 19:40N 30°08' W 093°19'0 0.0
2017-Dec-11 19:30N 30°08' W 093°19'0 0.0
2017-Dec-11 19:00N 30°08' W 093°19'0 0.0
2017-Dec-11 18:30N 30°08' W 093°19'0 0.0
2017-Dec-11 18:00N 30°08' W 093°19'0 0.0
2017-Dec-11 17:30N 30°08' W 093°19'0 0.0
2017-Dec-11 17:00N 30°08' W 093°19'0 0.0
2017-Dec-11 16:30N 30°08' W 093°19'0 0.0
2017-Dec-11 16:00N 30°08' W 093°19'0 0.0
2017-Dec-11 15:30N 30°08' W 093°19'0 0.0
2017-Dec-11 14:29N 30°08' W 093°19'1 2.7
2017-Dec-11 14:00N 30°07' W 093°20'2 4.4
2017-Dec-11 13:30N 30°05' W 093°20'2 4.2
2017-Dec-11 13:00N 30°04' W 093°22'0 0.2
2017-Dec-11 12:30N 30°04' W 093°22'0 0.1
2017-Dec-11 12:00N 30°04' W 093°22'0 0.2
2017-Dec-11 11:30N 30°04' W 093°22'1 1.3
2017-Dec-11 11:00N 30°04' W 093°21'0 0.0
2017-Dec-11 10:30N 30°04' W 093°21'0 0.0
2017-Dec-11 10:00N 30°04' W 093°21'0 0.0
2017-Dec-11 09:30N 30°04' W 093°21'0 0.0
2017-Dec-11 09:00N 30°04' W 093°21'0 0.0
2017-Dec-11 08:30N 30°04' W 093°21'0 0.0
2017-Dec-11 08:00N 30°04' W 093°21'0 0.0
2017-Dec-11 07:30N 30°04' W 093°21'0 0.0
2017-Dec-11 07:00N 30°04' W 093°21'0 0.0
2017-Dec-11 06:30N 30°04' W 093°21'0 0.0
2017-Dec-11 06:00N 30°04' W 093°21'0 0.0
2017-Dec-11 05:30N 30°04' W 093°21'0 0.0
2017-Dec-11 05:00N 30°04' W 093°21'0 0.0
2017-Dec-11 04:30N 30°04' W 093°21'0 0.0
2017-Dec-11 04:00N 30°04' W 093°21'0 0.0
2017-Dec-11 03:30N 30°04' W 093°21'0 0.0
2017-Dec-11 03:00N 30°04' W 093°21'0 0.0
2017-Dec-11 02:30N 30°04' W 093°21'0 0.0
2017-Dec-11 02:00N 30°04' W 093°21'0 0.0
2017-Dec-11 01:30N 30°04' W 093°21'0 0.0
2017-Dec-11 01:00N 30°04' W 093°21'0 0.0
2017-Dec-11 00:30N 30°04' W 093°21'0 0.0
2017-Dec-11 00:00N 30°04' W 093°21'0 0.0
2017-Dec-10 23:30N 30°04' W 093°21'0 0.0
2017-Dec-10 23:00N 30°04' W 093°21'0 0.0
2017-Dec-10 22:30N 30°04' W 093°21'0 0.0
2017-Dec-10 22:00N 30°04' W 093°21'0 0.0
2017-Dec-10 21:30N 30°04' W 093°21'0 0.0
2017-Dec-10 21:00N 30°04' W 093°21'0 0.0
2017-Dec-10 20:30N 30°04' W 093°21'0 0.0
2017-Dec-10 20:00N 30°04' W 093°21'0 0.0
2017-Dec-10 19:30N 30°04' W 093°21'0 0.0
2017-Dec-10 19:00N 30°04' W 093°21'0 0.0
2017-Dec-10 18:30N 30°04' W 093°21'0 0.0
2017-Dec-10 18:00N 30°04' W 093°21'0 0.0
2017-Dec-10 17:30N 30°04' W 093°21'0 0.0
2017-Dec-10 17:00N 30°04' W 093°21'0 0.0
2017-Dec-10 16:30N 30°04' W 093°21'0 0.0
2017-Dec-10 16:00N 30°04' W 093°21'0 0.0
2017-Dec-10 15:30N 30°04' W 093°21'0 0.0
2017-Dec-10 15:00N 30°04' W 093°21'0 0.0
2017-Dec-10 14:30N 30°04' W 093°21'0 0.0
2017-Dec-10 14:00N 30°04' W 093°21'0 0.0
2017-Dec-10 13:30N 30°04' W 093°21'0 0.0
2017-Dec-10 13:00N 30°04' W 093°21'0 0.0
2017-Dec-10 12:30N 30°04' W 093°21'0 0.0
2017-Dec-10 12:00N 30°04' W 093°21'0 0.0
2017-Dec-10 11:30N 30°04' W 093°21'0 0.0
2017-Dec-10 11:00N 30°04' W 093°21'0 0.0
2017-Dec-10 10:30N 30°04' W 093°21'0 0.0
2017-Dec-10 10:00N 30°04' W 093°21'0 0.0
2017-Dec-10 09:30N 30°04' W 093°21'0 0.0
2017-Dec-10 09:00N 30°04' W 093°21'0 0.0
2017-Dec-10 08:30N 30°04' W 093°21'0 0.0
2017-Dec-10 08:00N 30°04' W 093°21'0 0.0
2017-Dec-10 07:30N 30°04' W 093°21'0 0.0
2017-Dec-10 07:00N 30°04' W 093°21'0 0.0
2017-Dec-10 06:30N 30°04' W 093°21'0 0.0
2017-Dec-10 06:00N 30°04' W 093°21'0 0.0
2017-Dec-10 05:30N 30°04' W 093°21'0 0.0
2017-Dec-10 05:00N 30°04' W 093°21'0 0.0
2017-Dec-10 04:30N 30°04' W 093°21'0 0.0
2017-Dec-10 04:00N 30°04' W 093°21'1 1.3
2017-Dec-10 03:30N 30°04' W 093°22'0 0.0
2017-Dec-10 03:01N 30°04' W 093°22'1 1.1
2017-Dec-10 02:30N 30°04' W 093°23'2 4.5
2017-Dec-10 02:00N 30°04' W 093°25'2 4.7
2017-Dec-10 01:30N 30°04' W 093°28'2 4.7
2017-Dec-10 01:00N 30°04' W 093°31'2 4.2
2017-Dec-10 00:30N 30°04' W 093°33'2 4.5
2017-Dec-09 23:58N 30°04' W 093°36'2 4.4
2017-Dec-09 23:30N 30°04' W 093°38'72 3.3
2017-Dec-09 01:33N 29°30' W 094°53'1 5.3
2017-Dec-09 01:18N 29°31' W 094°53'2 5.4
2017-Dec-09 01:00N 29°33' W 094°54'3 5.5
2017-Dec-09 00:30N 29°35' W 094°56'3 5.7
2017-Dec-09 00:00N 29°38' W 094°58'3 6.1
2017-Dec-08 23:30N 29°41' W 094°59'3 6.0
2017-Dec-08 23:00N 29°43' W 095°01'3 0.4
2017-Dec-08 13:52N 29°45' W 095°04'3 4.3
2017-Dec-08 13:15N 29°44' W 095°01'0 0.5
2017-Dec-08 12:58N 29°44' W 095°01'0 0.1
2017-Dec-08 12:29N 29°44' W 095°01'0 0.0
2017-Dec-08 12:00N 29°44' W 095°01'0 0.0
2017-Dec-08 11:29N 29°44' W 095°01'0 0.6
2017-Dec-08 10:59N 29°44' W 095°01'1 2.8
2017-Dec-08 10:30N 29°42' W 095°01'2 3.4
2017-Dec-08 10:00N 29°43' W 095°03'0 0.3
2017-Dec-08 09:23N 29°43' W 095°03'0 0.0
2017-Dec-08 05:34N 29°43' W 095°03'0 0.0
2017-Dec-07 23:43N 29°43' W 095°03'0 0.0
2017-Dec-07 20:55N 29°43' W 095°03'0 0.0
2017-Dec-07 20:08N 29°43' W 095°03'0 0.0
2017-Dec-07 14:31N 29°43' W 095°03'0 0.2
2017-Dec-07 14:30N 29°43' W 095°03'2 3.3
2017-Dec-07 13:58N 29°42' W 095°01'3 5.3
2017-Dec-07 13:28N 29°44' W 095°03'  

Dump ship's entire track history